Time;durP1;ratioP1;P1;durP2;ratioP2;P2;SDS_P1;SDS_P2;PMS_P1;PMS_P2;Temp;Humidity;BMP_temperature;BMP_pressure;BME280_temperature;BME280_humidity;BME280_pressure;Samples;Min_cycle;Max_cycle;Signal;HPM_P1;HPM_P2
2023/01/25 00:02:08;;;;;;;8.25;2.42;;;;;;;19.05;53.74;101817.34;7394598;19;20014;-56
2023/01/25 00:04:35;;;;;;;4.05;1.92;;;;;;;19.15;53.74;101823.66;7395672;19;20010;-56
2023/01/25 00:07:01;;;;;;;4.30;2.10;;;;;;;19.02;53.78;101820.34;7393653;19;20484;-56
2023/01/25 00:09:27;;;;;;;5.25;1.38;;;;;;;19.14;53.57;101810.81;7393547;19;20014;-56
2023/01/25 00:11:56;;;;;;;14.73;2.22;;;;;;;19.03;53.57;101811.41;7393661;19;20017;-55
2023/01/25 00:14:23;;;;;;;6.03;2.05;;;;;;;19.00;53.69;101806.72;7396758;19;20034;-56
2023/01/25 00:16:49;;;;;;;11.98;2.38;;;;;;;19.05;53.58;101806.03;7394374;19;20006;-56
2023/01/25 00:19:16;;;;;;;8.15;2.45;;;;;;;19.12;53.94;101799.22;7393056;19;20027;-55
2023/01/25 00:21:42;;;;;;;7.18;1.70;;;;;;;19.14;53.96;101791.03;7394550;19;20084;-55
2023/01/25 00:24:10;;;;;;;1.33;1.25;;;;;;;19.30;53.28;101788.47;7394128;19;20010;-55
2023/01/25 00:26:38;;;;;;;3.88;2.10;;;;;;;19.42;53.57;101789.47;7399136;19;20022;-56
2023/01/25 00:29:04;;;;;;;3.90;1.48;;;;;;;19.59;53.12;101784.84;7394280;19;20018;-55
2023/01/25 00:31:33;;;;;;;3.25;1.30;;;;;;;19.67;53.12;101783.94;7393020;19;20074;-56
2023/01/25 00:34:22;;;;;;;3.83;1.83;;;;;;;19.88;52.69;101778.31;7394782;19;20014;-56
2023/01/25 00:37:24;;;;;;;8.50;2.08;;;;;;;19.73;52.73;101774.75;7392842;19;20015;-56
2023/01/25 00:39:51;;;;;;;12.63;2.80;;;;;;;19.68;52.85;101771.34;7393628;19;20017;-56
2023/01/25 00:42:18;;;;;;;7.63;2.15;;;;;;;19.48;52.89;101773.38;7394765;19;20325;-56
2023/01/25 00:44:46;;;;;;;8.52;2.35;;;;;;;19.40;53.21;101773.00;7390649;19;20038;-56
2023/01/25 00:47:12;;;;;;;9.73;2.53;;;;;;;19.32;53.49;101771.03;7394604;19;20015;-56
2023/01/25 00:49:40;;;;;;;23.92;2.67;;;;;;;19.38;53.22;101774.75;7394888;19;20051;-56
2023/01/25 00:52:07;;;;;;;13.20;2.67;;;;;;;19.53;53.08;101770.59;7392801;19;20748;-56
2023/01/25 00:54:33;;;;;;;2.83;1.80;;;;;;;19.36;53.17;101768.81;7394784;19;20022;-56
2023/01/25 00:56:59;;;;;;;12.48;3.67;;;;;;;19.57;53.14;101776.88;7393892;19;20111;-56
2023/01/25 00:59:26;;;;;;;5.90;1.42;;;;;;;19.60;53.00;101756.06;7393499;19;20094;-55
2023/01/25 01:01:54;;;;;;;6.93;2.60;;;;;;;19.57;52.71;101764.78;7391530;19;20014;-56
2023/01/25 01:04:23;;;;;;;3.45;2.70;;;;;;;19.53;53.15;101770.59;7394763;19;20010;-55
2023/01/25 01:06:52;;;;;;;3.60;2.30;;;;;;;19.55;53.39;101770.94;7392521;19;20513;-55
2023/01/25 01:09:21;;;;;;;2.80;1.77;;;;;;;19.56;53.30;101749.06;7393328;19;20010;-56
2023/01/25 01:11:47;;;;;;;3.50;1.92;;;;;;;19.66;53.29;101751.28;7391644;19;20037;-56
2023/01/25 01:14:13;;;;;;;12.95;2.00;;;;;;;19.67;53.01;101754.88;7394721;19;20011;-56
2023/01/25 01:16:40;;;;;;;7.78;1.13;;;;;;;19.85;52.61;101757.44;7391225;19;20052;-56
2023/01/25 01:19:09;;;;;;;6.97;3.50;;;;;;;19.92;52.33;101757.03;7392046;19;20498;-56
2023/01/25 01:21:35;;;;;;;9.80;1.77;;;;;;;20.01;52.19;101750.47;7391537;19;20015;-56
2023/01/25 01:24:01;;;;;;;3.60;1.42;;;;;;;19.99;51.86;101747.34;7391723;19;20347;-56
2023/01/25 01:26:27;;;;;;;9.50;3.05;;;;;;;20.02;51.81;101746.34;7396850;19;20010;-55
2023/01/25 01:28:53;;;;;;;6.15;3.03;;;;;;;19.88;52.15;101733.06;7392942;19;20459;-55
2023/01/25 01:31:22;;;;;;;2.58;1.63;;;;;;;19.81;52.26;101739.13;7390784;19;20029;-56
2023/01/25 01:33:57;;;;;;;8.07;2.40;;;;;;;19.67;52.46;101732.28;7392374;19;20355;-55
2023/01/25 01:36:26;;;;;;;3.28;1.52;;;;;;;19.63;52.54;101728.88;7392871;19;20395;-55
2023/01/25 01:38:53;;;;;;;14.80;3.38;;;;;;;19.66;52.78;101723.00;7392486;19;20561;-55
2023/01/25 01:41:20;;;;;;;8.98;2.08;;;;;;;19.73;52.72;101726.72;7391209;19;20027;-55
2023/01/25 01:43:47;;;;;;;14.52;2.17;;;;;;;19.72;52.86;101742.09;7390837;19;20018;-56
2023/01/25 01:46:38;;;;;;;1.90;1.15;;;;;;;19.90;52.60;101724.88;7390975;19;20026;-56
2023/01/25 01:49:28;;;;;;;7.47;2.38;;;;;;;19.92;52.12;101722.31;7390058;19;20121;-56
2023/01/25 01:52:12;;;;;;;16.33;3.10;;;;;;;19.92;52.13;101719.50;7391262;19;20390;-55
2023/01/25 01:54:49;;;;;;;2.05;1.25;;;;;;;20.05;52.01;101719.91;7392130;19;20002;-56
2023/01/25 01:57:20;;;;;;;4.75;1.65;;;;;;;20.12;51.67;101719.47;7388912;19;20343;-56
2023/01/25 01:59:53;;;;;;;0.90;0.90;;;;;;;20.23;51.42;101713.94;7390318;19;20015;-56
2023/01/25 02:02:22;;;;;;;5.63;0.98;;;;;;;18.63;53.83;101715.19;7390940;19;20011;-56
2023/01/25 02:04:49;;;;;;;10.10;2.15;;;;;;;17.83;55.99;101716.19;7392781;19;20082;-56
2023/01/25 02:07:22;;;;;;;23.50;1.45;;;;;;;17.28;57.65;101721.34;7389060;19;20011;-56
2023/01/25 02:09:50;;;;;;;1.40;0.75;;;;;;;17.03;59.54;101709.72;7389753;19;20480;-56
2023/01/25 02:12:20;;;;;;;1.17;1.08;;;;;;;17.60;58.59;101713.38;7390919;19;20506;-56
2023/01/25 02:14:51;;;;;;;1.65;0.82;;;;;;;17.75;58.09;101709.38;7392986;19;20126;-56
2023/01/25 02:17:24;;;;;;;;;;;;;;;16.38;60.95;101716.75;7392162;19;20025;-56
2023/01/25 02:20:02;;;;;;;8.13;2.17;;;;;;;19.22;55.62;101711.06;7389523;19;20003;-56
2023/01/25 02:22:49;;;;;;;0.90;0.85;;;;;;;19.20;55.48;101710.75;7389900;19;20006;-56
2023/01/25 02:25:16;;;;;;;1.17;1.08;;;;;;;18.04;57.75;101709.44;7390255;19;20014;-56
2023/01/25 02:28:00;;;;;;;2.88;1.63;;;;;;;19.41;55.24;101700.28;7386744;19;20007;-56
2023/01/25 02:30:27;;;;;;;6.45;1.90;;;;;;;20.03;54.02;101697.00;7389483;19;20018;-56
2023/01/25 02:32:53;;;;;;;5.30;1.67;;;;;;;19.99;53.66;101694.38;7391085;19;20045;-56
2023/01/25 02:35:21;;;;;;;3.28;0.73;;;;;;;19.78;53.55;101692.84;7393698;19;20563;-56
2023/01/25 02:37:49;;;;;;;5.03;2.20;;;;;;;20.16;52.84;101683.25;7388988;19;20014;-56
2023/01/25 02:40:17;;;;;;;4.47;1.17;;;;;;;20.06;52.97;101681.84;7389321;19;20013;-56
2023/01/25 02:42:44;;;;;;;1.10;1.00;;;;;;;19.97;52.86;101685.59;7387708;19;20360;-56
2023/01/25 02:45:15;;;;;;;1.63;1.52;;;;;;;20.02;52.82;101686.94;7387207;19;20014;-56
2023/01/25 02:47:41;;;;;;;14.80;1.02;;;;;;;17.47;56.27;101690.28;7389366;19;20014;-56
2023/01/25 02:50:08;;;;;;;12.23;1.20;;;;;;;10.54;100.00;101712.56;7388583;19;20638;-56
2023/01/25 02:52:34;;;;;;;0.57;0.57;;;;;;;13.92;96.05;101698.66;7388477;19;20011;-56
2023/01/25 02:55:00;;;;;;;1.85;1.30;;;;;;;16.43;81.55;101693.63;7393281;19;20038;-56
2023/01/25 02:57:27;;;;;;;3.03;0.95;;;;;;;19.01;66.18;101689.69;7388144;19;20010;-56
2023/01/25 02:59:53;;;;;;;3.83;1.98;;;;;;;17.75;66.08;101694.50;7388743;19;20015;-56
2023/01/25 03:02:21;;;;;;;5.57;1.08;;;;;;;19.58;62.72;101699.25;7387731;19;20071;-56
2023/01/25 03:04:47;;;;;;;6.82;1.42;;;;;;;19.80;60.62;101695.94;7391771;19;20046;-56
2023/01/25 03:07:14;;;;;;;5.18;1.05;;;;;;;19.94;59.64;101697.16;7388032;19;20015;-56
2023/01/25 03:09:40;;;;;;;14.32;1.77;;;;;;;16.60;68.21;101694.09;7389370;19;20018;-56
2023/01/25 03:12:07;;;;;;;5.75;0.75;;;;;;;15.80;77.50;101693.66;7390282;19;20359;-56
2023/01/25 03:14:33;;;;;;;3.75;0.88;;;;;;;19.19;65.78;101683.78;7392507;19;20451;-56
2023/01/25 03:17:00;;;;;;;4.05;0.93;;;;;;;19.69;63.71;101687.31;7389603;19;20357;-56
2023/01/25 03:19:27;;;;;;;1.85;0.40;;;;;;;20.12;61.19;101679.88;7389994;19;20348;-56
2023/01/25 03:21:53;;;;;;;3.97;0.65;;;;;;;19.25;64.05;101686.69;7393306;19;20022;-56
2023/01/25 03:24:19;;;;;;;7.32;1.80;;;;;;;20.01;60.91;101674.09;7393393;19;20073;-56
2023/01/25 03:29:40;;;;;;;9.18;1.33;;;;;;;19.88;59.69;101682.16;7389888;19;20011;-55
2023/01/25 03:32:11;;;;;;;2.78;0.85;;;;;;;19.99;59.66;101671.00;7388028;19;20011;-56
2023/01/25 03:34:37;;;;;;;11.88;2.05;;;;;;;20.17;58.74;101673.47;7390743;19;20018;-56
2023/01/25 03:37:04;;;;;;;0.88;0.60;;;;;;;20.35;57.84;101670.38;7387988;19;20039;-56
2023/01/25 03:39:32;;;;;;;3.85;2.28;;;;;;;20.36;56.99;101671.91;7387705;19;20007;-56
2023/01/25 03:41:58;;;;;;;3.25;1.40;;;;;;;20.42;57.03;101665.03;7387673;19;20088;-56
2023/01/25 03:44:25;;;;;;;10.85;2.22;;;;;;;20.25;57.09;101666.13;7388176;19;20036;-56
2023/01/25 03:46:51;;;;;;;4.72;1.55;;;;;;;20.44;57.01;101675.88;7386862;19;20022;-56
2023/01/25 03:49:17;;;;;;;9.85;2.33;;;;;;;20.38;56.67;101658.03;7386832;19;20007;-56
2023/01/25 03:51:44;;;;;;;1.02;0.80;;;;;;;20.30;56.72;101662.59;7386117;19;20014;-56
2023/01/25 03:54:11;;;;;;;7.53;1.40;;;;;;;20.35;55.89;101653.38;7389366;19;20011;-55
2023/01/25 03:56:37;;;;;;;1.88;1.58;;;;;;;20.26;55.67;101667.69;7392802;19;20110;-56
2023/01/25 03:59:10;;;;;;;5.47;1.58;;;;;;;20.28;55.60;101654.59;7385858;19;20011;-56
2023/01/25 04:01:36;;;;;;;1.17;0.95;;;;;;;20.15;55.50;101661.88;7386317;19;20021;-56
2023/01/25 04:04:03;;;;;;;1.27;1.17;;;;;;;19.75;56.09;101662.72;7388601;19;20007;-56
2023/01/25 04:06:29;;;;;;;1.55;1.45;;;;;;;19.28;56.84;101657.44;7387527;19;20010;-56
2023/01/25 04:08:56;;;;;;;4.97;1.55;;;;;;;19.84;56.75;101659.75;7388887;19;20015;-56
2023/01/25 04:11:24;;;;;;;2.20;0.40;;;;;;;20.10;56.20;101660.56;7386402;19;20039;-56
2023/01/25 04:13:50;;;;;;;3.65;1.42;;;;;;;20.04;55.94;101659.72;7387815;19;20342;-56
2023/01/25 04:16:19;;;;;;;1.33;1.23;;;;;;;20.16;55.70;101654.97;7386385;19;20494;-56
2023/01/25 04:19:08;;;;;;;7.63;2.15;;;;;;;20.28;55.39;101659.47;7387668;19;20014;-56
2023/01/25 04:21:35;;;;;;;1.55;1.23;;;;;;;20.15;55.56;101644.91;7392869;19;20020;-56
2023/01/25 04:24:01;;;;;;;3.30;1.52;;;;;;;19.88;55.96;101642.59;7393659;19;20010;-56
2023/01/25 04:26:29;;;;;;;1.00;0.50;;;;;;;19.66;56.58;101643.09;7396021;19;20442;-56
2023/01/25 04:28:58;;;;;;;6.57;1.13;;;;;;;19.58;56.67;101636.28;7392341;19;20073;-56
2023/01/25 04:31:25;;;;;;;3.70;2.15;;;;;;;19.73;56.07;101633.41;7392572;19;20018;-56
2023/01/25 04:33:51;;;;;;;5.43;0.93;;;;;;;19.74;55.92;101627.25;7393567;19;20006;-56
2023/01/25 04:36:19;;;;;;;1.70;1.05;;;;;;;19.66;56.00;101626.88;7392089;19;20089;-56
2023/01/25 04:38:45;;;;;;;0.63;0.60;;;;;;;19.48;56.19;101626.41;7392838;19;20370;-56
2023/01/25 04:41:11;;;;;;;0.50;0.50;;;;;;;19.33;56.13;101615.16;7392948;19;20007;-56
2023/01/25 04:43:37;;;;;;;0.85;0.70;;;;;;;19.28;56.23;101623.53;7391643;19;20369;-56
2023/01/25 04:46:08;;;;;;;4.80;1.80;;;;;;;19.54;55.57;101611.06;7392652;19;20333;-56
2023/01/25 04:48:35;;;;;;;1.10;0.77;;;;;;;19.60;55.34;101611.91;7393184;19;20017;-56
2023/01/25 04:51:04;;;;;;;2.40;1.25;;;;;;;19.53;55.53;101629.28;7392206;19;20015;-56
2023/01/25 04:53:31;;;;;;;5.75;1.23;;;;;;;19.73;54.88;101614.38;7392520;19;20019;-56
2023/01/25 04:56:00;;;;;;;3.42;1.45;;;;;;;19.25;55.92;101625.28;7393957;19;20010;-56
2023/01/25 04:58:29;;;;;;;1.95;1.13;;;;;;;19.21;55.64;101619.09;7392309;19;20047;-56
2023/01/25 05:01:02;;;;;;;2.28;0.82;;;;;;;19.35;55.83;101609.81;7392592;19;20011;-56
2023/01/25 05:03:29;;;;;;;0.55;0.30;;;;;;;19.29;56.37;101608.16;7392098;19;20010;-56
2023/01/25 05:05:55;;;;;;;0.50;0.47;;;;;;;19.26;56.33;101595.00;7395668;19;20494;-56
2023/01/25 05:08:25;;;;;;;6.90;1.58;;;;;;;19.14;56.39;101594.09;7392668;19;20093;-56
2023/01/25 05:10:54;;;;;;;1.48;0.82;;;;;;;19.15;56.48;101592.03;7390923;19;20017;-56
2023/01/25 05:13:46;;;;;;;1.80;1.70;;;;;;;19.09;56.32;101577.84;7391340;19;20002;-56
2023/01/25 05:16:17;;;;;;;2.90;1.27;;;;;;;19.01;56.30;101581.59;7391017;19;20015;-56
2023/01/25 05:18:44;;;;;;;1.00;0.90;;;;;;;19.09;56.54;101583.50;7392644;19;20014;-56
2023/01/25 05:21:56;;;;;;;2.35;0.65;;;;;;;19.14;56.19;101579.97;7389898;19;20010;-56
2023/01/25 05:23:57;;;;;;;6.60;1.35;;;;;;;19.16;56.75;101583.09;7393145;19;20010;-56
2023/01/25 05:29:09;;;;;;;13.20;3.60;;;;;;;19.32;56.71;101576.06;7390736;19;20598;-56
2023/01/25 05:31:45;;;;;;;11.25;1.98;;;;;;;19.38;56.22;101572.06;7385311;19;20014;-54
2023/01/25 05:34:11;;;;;;;2.38;0.88;;;;;;;19.34;56.33;101563.03;7389595;19;20018;-53
2023/01/25 05:36:38;;;;;;;7.30;3.00;;;;;;;19.72;55.96;101566.81;7387765;19;20014;-53
2023/01/25 05:39:05;;;;;;;1.38;1.27;;;;;;;20.10;55.48;101563.59;7390645;19;20015;-53
2023/01/25 05:41:32;;;;;;;5.80;1.77;;;;;;;19.92;55.35;101566.78;7386065;19;20062;-53
2023/01/25 05:43:59;;;;;;;13.65;1.85;;;;;;;19.86;55.83;101569.53;7390879;19;20010;-53
2023/01/25 05:46:26;;;;;;;1.33;1.23;;;;;;;19.73;55.95;101574.78;7388500;19;20014;-53
2023/01/25 05:48:53;;;;;;;0.68;0.68;;;;;;;19.72;56.04;101575.31;7388583;19;20014;-53
2023/01/25 05:51:20;;;;;;;5.20;1.65;;;;;;;19.72;56.07;101575.31;7386111;19;20010;-54
2023/01/25 05:53:47;;;;;;;3.95;0.95;;;;;;;20.07;55.95;101573.09;7390526;19;20014;-54
2023/01/25 05:56:13;;;;;;;0.50;0.32;;;;;;;20.34;55.29;101578.25;7391719;19;20019;-54
2023/01/25 05:58:40;;;;;;;4.50;1.75;;;;;;;20.36;55.11;101582.13;7388786;19;20042;-54
2023/01/25 06:01:07;;;;;;;0.70;0.52;;;;;;;20.22;54.97;101582.25;7389384;19;20010;-54
2023/01/25 06:03:45;;;;;;;1.27;0.90;;;;;;;20.56;54.82;101577.66;7389107;19;20022;-54
2023/01/25 06:06:11;;;;;;;0.40;0.35;;;;;;;20.66;54.28;101579.78;7395345;19;20010;-53
2023/01/25 06:08:37;;;;;;;2.92;1.70;;;;;;;19.88;56.13;101583.19;7390130;19;20740;-54
2023/01/25 06:11:10;;;;;;;2.30;1.05;;;;;;;20.44;54.75;101582.47;7388728;19;20024;-54
2023/01/25 06:13:39;;;;;;;0.73;0.73;;;;;;;20.46;55.08;101587.59;7390036;19;20011;-54
2023/01/25 06:16:07;;;;;;;0.93;0.45;;;;;;;20.36;54.96;101575.69;7390364;19;20011;-54
2023/01/25 06:18:43;;;;;;;0.13;0.13;;;;;;;20.32;55.27;101580.81;7390676;19;20011;-55
2023/01/25 06:21:27;;;;;;;1.15;0.63;;;;;;;20.43;54.91;101575.22;7388818;19;20027;-55
2023/01/25 06:23:53;;;;;;;7.22;1.27;;;;;;;20.38;54.79;101573.91;7391850;19;20006;-56
2023/01/25 06:26:20;;;;;;;3.55;2.35;;;;;;;20.40;54.19;101581.88;7395118;19;20006;-55
2023/01/25 06:28:46;;;;;;;1.67;0.43;;;;;;;20.51;54.16;101567.06;7388777;19;20485;-55
2023/01/25 06:31:14;;;;;;;0.63;0.63;;;;;;;20.43;54.28;101569.56;7390381;19;20011;-55
2023/01/25 06:33:42;;;;;;;0.15;0.10;;;;;;;20.35;54.29;101566.44;7390479;19;20011;-55
2023/01/25 06:36:12;;;;;;;1.23;0.85;;;;;;;20.32;54.53;101563.81;7390056;19;20017;-55
2023/01/25 06:38:38;;;;;;;4.47;1.13;;;;;;;20.30;54.67;101569.22;7390514;19;20022;-55
2023/01/25 06:41:08;;;;;;;0.25;0.25;;;;;;;20.30;55.06;101560.72;7390445;19;20744;-55
2023/01/25 06:43:34;;;;;;;1.35;1.25;;;;;;;20.30;54.90;101560.72;7389805;19;20080;-55
2023/01/25 06:46:02;;;;;;;2.17;1.05;;;;;;;20.41;54.37;101563.66;7389625;19;20035;-55
2023/01/25 06:48:30;;;;;;;0.68;0.60;;;;;;;20.47;54.38;101564.44;7388411;19;20647;-55
2023/01/25 06:50:58;;;;;;;1.02;0.43;;;;;;;20.56;54.12;101566.31;7390177;19;20015;-55
2023/01/25 06:53:26;;;;;;;1.77;0.65;;;;;;;20.54;54.34;101558.34;7388926;19;20043;-55
2023/01/25 06:56:10;;;;;;;0.77;0.60;;;;;;;20.68;54.24;101559.47;7392326;19;20023;-55
2023/01/25 06:58:37;;;;;;;2.58;0.65;;;;;;;20.64;54.07;101551.19;7390990;19;20011;-54
2023/01/25 07:01:15;;;;;;;5.55;2.45;;;;;;;20.88;53.62;101554.44;7389381;19;20011;-55
2023/01/25 07:03:41;;;;;;;4.60;1.88;;;;;;;21.00;53.08;101556.06;7389111;19;20010;-54
2023/01/25 07:06:09;;;;;;;6.28;2.03;;;;;;;20.93;53.06;101556.53;7393913;19;20022;-54
2023/01/25 07:08:36;;;;;;;7.10;2.17;;;;;;;20.91;53.33;101559.09;7389162;19;20365;-54
2023/01/25 07:11:05;;;;;;;3.80;1.88;;;;;;;21.07;52.92;101558.44;7389573;19;20006;-54
2023/01/25 07:13:32;;;;;;;1.92;0.65;;;;;;;20.99;52.74;101557.34;7389423;19;20015;-54
2023/01/25 07:16:01;;;;;;;2.90;1.00;;;;;;;20.99;52.92;101551.66;7387250;19;20082;-54
2023/01/25 07:18:28;;;;;;;7.72;1.17;;;;;;;20.88;53.24;101543.09;7389400;19;20019;-54
2023/01/25 07:21:01;;;;;;;2.03;1.50;;;;;;;20.88;53.25;101545.16;7388653;19;20010;-54
2023/01/25 07:23:31;;;;;;;1.83;0.95;;;;;;;21.10;53.01;101543.25;7386796;19;20013;-54
2023/01/25 07:25:57;;;;;;;0.20;0.20;;;;;;;21.07;52.56;101538.59;7392170;19;20463;-54
2023/01/25 07:28:24;;;;;;;3.90;1.50;;;;;;;21.17;52.72;101535.56;7388542;19;20115;-54
2023/01/25 07:30:50;;;;;;;0.95;0.17;;;;;;;21.07;52.58;101535.75;7393078;19;20014;-54
2023/01/25 07:33:16;;;;;;;0.63;0.60;;;;;;;21.09;52.47;101536.03;7387832;19;20028;-54
2023/01/25 07:35:42;;;;;;;2.95;0.82;;;;;;;21.12;52.85;101535.03;7388369;19;20014;-54
2023/01/25 07:38:09;;;;;;;15.77;2.28;;;;;;;21.17;52.74;101535.56;7388445;19;20098;-54
2023/01/25 07:40:35;;;;;;;7.22;0.63;;;;;;;20.90;52.72;101532.03;7386768;19;20443;-55
2023/01/25 07:43:01;;;;;;;12.00;1.15;;;;;;;20.85;52.90;101538.47;7389181;19;20014;-55
2023/01/25 07:45:30;;;;;;;4.50;1.63;;;;;;;20.72;53.14;101529.66;7389438;19;20014;-55
2023/01/25 07:47:57;;;;;;;1.67;1.58;;;;;;;20.43;53.56;101521.47;7388132;19;20018;-54
2023/01/25 07:50:27;;;;;;;1.02;0.60;;;;;;;20.55;54.47;101508.94;7388363;19;20031;-54
2023/01/25 07:52:53;;;;;;;23.13;1.48;;;;;;;20.49;53.86;101508.13;7387703;19;20080;-55
2023/01/25 07:55:20;;;;;;;2.30;2.10;;;;;;;20.48;54.10;101508.63;7397863;19;20009;-55
2023/01/25 07:57:47;;;;;;;13.75;1.38;;;;;;;20.38;54.58;101505.22;7396075;19;20023;-55
2023/01/25 08:00:21;;;;;;;1.10;0.93;;;;;;;20.39;54.44;101501.09;7396566;19;20014;-54
2023/01/25 08:02:51;;;;;;;4.63;1.40;;;;;;;20.62;54.49;101497.13;7391915;19;20011;-59
2023/01/25 08:05:19;;;;;;;0.30;0.30;;;;;;;20.83;53.93;101492.91;7395585;19;20007;-58
2023/01/25 08:07:45;;;;;;;1.05;0.47;;;;;;;20.90;53.44;101489.56;7392017;19;20014;-58
2023/01/25 08:10:11;;;;;;;1.63;1.17;;;;;;;20.85;53.80;101475.38;7395467;19;20018;-58
2023/01/25 08:12:38;;;;;;;2.25;1.27;;;;;;;20.97;53.41;101472.09;7393637;19;20097;-58
2023/01/25 08:15:05;;;;;;;4.03;1.42;;;;;;;20.86;53.43;101466.38;7397338;19;20628;-58
2023/01/25 08:17:32;;;;;;;1.33;0.73;;;;;;;19.65;54.65;101458.56;7393809;19;20474;-58
2023/01/25 08:20:07;;;;;;;2.65;1.23;;;;;;;20.30;56.29;101456.03;7394238;19;20049;-58
2023/01/25 08:22:34;;;;;;;5.57;1.42;;;;;;;20.59;56.01;101447.22;7394696;19;20014;-58
2023/01/25 08:25:00;;;;;;;5.88;2.25;;;;;;;21.03;55.34;101447.41;7395621;19;20478;-58
2023/01/25 08:27:27;;;;;;;1.42;1.02;;;;;;;21.33;54.57;101435.66;7394039;19;20007;-58
2023/01/25 08:29:54;;;;;;;2.83;1.17;;;;;;;21.51;53.93;101440.81;7395167;19;20007;-58
2023/01/25 08:32:20;;;;;;;2.90;1.13;;;;;;;21.55;54.43;101442.13;7394526;19;20066;-59
2023/01/25 08:34:47;;;;;;;0.60;0.60;;;;;;;21.63;53.78;101425.38;7396227;19;20021;-58
2023/01/25 08:37:13;;;;;;;2.33;0.45;;;;;;;21.72;53.97;101440.06;7394242;19;20086;-58
2023/01/25 08:39:39;;;;;;;1.13;1.02;;;;;;;21.69;53.77;101443.19;7393384;19;20115;-58
2023/01/25 08:42:06;;;;;;;2.28;0.57;;;;;;;21.56;54.14;101434.41;7393139;19;20013;-58
2023/01/25 08:44:32;;;;;;;1.73;1.35;;;;;;;21.54;53.95;101432.09;7393811;19;20006;-58
2023/01/25 08:46:58;;;;;;;1.50;0.75;;;;;;;21.65;53.80;101417.13;7394035;19;20014;-58
2023/01/25 08:49:26;;;;;;;2.05;1.52;;;;;;;21.74;53.67;101414.06;7393718;19;20025;-58
2023/01/25 08:51:52;;;;;;;0.85;0.57;;;;;;;21.79;53.44;101421.75;7391965;19;20019;-58
2023/01/25 08:54:18;;;;;;;0.95;0.35;;;;;;;21.72;53.77;101422.31;7395090;19;20018;-58
2023/01/25 08:56:44;;;;;;;1.42;1.30;;;;;;;21.67;53.87;101414.56;7398436;19;20372;-58
2023/01/25 08:59:12;;;;;;;2.00;0.63;;;;;;;21.88;53.62;101402.47;7394687;19;20017;-58
2023/01/25 09:01:38;;;;;;;1.63;0.60;;;;;;;21.85;53.59;101397.06;7394105;19;20034;-58
2023/01/25 09:04:05;;;;;;;4.20;2.13;;;;;;;21.87;53.61;101397.31;7392855;19;20095;-58
2023/01/25 09:06:32;;;;;;;5.28;0.95;;;;;;;21.82;53.98;101395.22;7391402;19;20010;-58
2023/01/25 09:08:59;;;;;;;1.50;0.77;;;;;;;21.33;54.34;101387.47;7392784;19;20363;-58
2023/01/25 09:11:25;;;;;;;3.95;1.42;;;;;;;21.43;54.50;101391.59;7392024;19;20024;-58
2023/01/25 09:13:51;;;;;;;2.83;1.85;;;;;;;21.43;54.71;101385.94;7393332;19;20014;-58
2023/01/25 09:16:27;;;;;;;2.90;2.28;;;;;;;21.58;54.61;101383.63;7394076;19;20010;-58
2023/01/25 09:18:59;;;;;;;9.43;1.65;;;;;;;21.98;54.06;101376.66;7393840;19;20021;-58
2023/01/25 09:21:25;;;;;;;1.25;1.15;;;;;;;21.95;54.02;101361.44;7392815;19;20062;-58
2023/01/25 09:23:53;;;;;;;4.72;1.95;;;;;;;21.95;53.84;101352.94;7393390;19;20014;-58
2023/01/25 09:26:20;;;;;;;19.13;2.45;;;;;;;21.98;53.98;101360.41;7394129;19;20073;-58
2023/01/25 09:28:49;;;;;;;0.77;0.52;;;;;;;22.18;53.65;101345.13;7392755;19;20006;-58
2023/01/25 09:31:16;;;;;;;2.97;0.52;;;;;;;21.88;54.43;101356.28;7392410;19;20018;-58
2023/01/25 09:34:13;;;;;;;3.53;1.15;;;;;;;22.13;54.36;101352.41;7393388;19;20074;-58
2023/01/25 09:36:40;;;;;;;0.90;0.63;;;;;;;22.19;54.16;101338.97;7391372;19;20010;-58
2023/01/25 09:39:06;;;;;;;0.60;0.60;;;;;;;22.30;54.00;101336.09;7392673;19;20026;-58
2023/01/25 09:42:00;;;;;;;2.53;1.08;;;;;;;22.37;54.08;101320.56;7392062;19;20010;-58
2023/01/25 09:44:38;;;;;;;4.78;0.80;;;;;;;22.24;54.75;101315.44;7393646;19;20011;-58
2023/01/25 09:47:18;;;;;;;9.60;0.80;;;;;;;21.95;56.02;101313.22;7391161;19;20014;-58
2023/01/25 09:50:16;;;;;;;6.55;1.75;;;;;;;22.08;55.83;101307.78;7391813;19;20017;-58
2023/01/25 09:52:42;;;;;;;1.17;0.63;;;;;;;22.10;56.21;101310.06;7389687;19;20458;-58
2023/01/25 09:55:13;;;;;;;0.90;0.22;;;;;;;22.32;56.63;101310.78;7394915;19;20013;-58
2023/01/25 09:57:44;;;;;;;2.85;1.67;;;;;;;22.49;56.02;101317.16;7392077;19;20022;-58
2023/01/25 10:00:22;;;;;;;3.83;1.67;;;;;;;22.38;56.48;101317.19;7391863;19;20462;-58
2023/01/25 10:02:57;;;;;;;3.38;1.65;;;;;;;22.43;56.92;101321.31;7392009;19;20010;-58
2023/01/25 10:05:27;;;;;;;13.18;1.80;;;;;;;24.04;55.21;101321.69;7394635;19;20014;-58
2023/01/25 10:08:11;;;;;;;1.80;0.60;;;;;;;26.45;50.21;101318.91;7390481;19;20014;-58
2023/01/25 10:10:40;;;;;;;6.28;1.05;;;;;;;25.76;50.07;101327.00;7391945;19;20010;-58
2023/01/25 10:13:20;;;;;;;4.85;1.98;;;;;;;23.84;53.18;101336.38;7391827;19;20022;-58
2023/01/25 10:15:58;;;;;;;1.00;0.45;;;;;;;24.03;52.94;101328.69;7390863;19;20007;-58
2023/01/25 10:18:52;;;;;;;1.65;0.80;;;;;;;24.57;52.77;101337.13;7390590;19;20010;-58
2023/01/25 10:21:41;;;;;;;1.67;0.90;;;;;;;23.87;54.66;101343.84;7390883;19;20479;-58
2023/01/25 10:24:26;;;;;;;4.47;1.23;;;;;;;25.55;50.55;101344.00;7391098;19;20500;-59
2023/01/25 10:27:01;;;;;;;0.93;0.93;;;;;;;26.18;48.73;101343.13;7389232;19;20090;-59
2023/01/25 10:29:32;;;;;;;2.35;0.90;;;;;;;25.96;49.30;101357.78;7390484;19;20491;-58
2023/01/25 10:32:10;;;;;;;0.73;0.25;;;;;;;26.04;49.42;101350.09;7389831;19;20018;-58
2023/01/25 10:34:44;;;;;;;0.65;0.65;;;;;;;25.05;50.34;101363.94;7393205;19;20010;-58
2023/01/25 10:37:18;;;;;;;0.60;0.22;;;;;;;25.41;50.45;101363.13;7390393;19;20038;-58
2023/01/25 10:40:18;;;;;;;0.68;0.30;;;;;;;23.03;53.46;101379.91;7390604;19;20014;-58
2023/01/25 10:43:10;;;;;;;1.00;0.75;;;;;;;23.44;53.83;101364.91;7391284;19;20516;-59
2023/01/25 10:45:37;;;;;;;3.05;1.20;;;;;;;24.14;51.85;101361.19;7393641;19;20014;-59
2023/01/25 10:48:08;;;;;;;3.58;0.98;;;;;;;23.70;53.92;101365.22;7390642;19;20019;-59
2023/01/25 10:50:45;;;;;;;1.13;1.02;;;;;;;23.10;55.66;101350.16;7390676;19;20353;-59
2023/01/25 10:53:29;;;;;;;2.97;1.00;;;;;;;25.13;52.50;101351.38;7390900;19;20007;-59
2023/01/25 10:56:10;;;;;;;0.35;0.35;;;;;;;23.95;56.66;101353.31;7393015;19;20019;-59
2023/01/25 10:58:43;;;;;;;1.02;0.80;;;;;;;24.68;54.51;101348.38;7390680;19;20082;-59
2023/01/25 11:01:22;;;;;;;3.47;0.98;;;;;;;24.62;53.93;101341.19;7389676;19;20011;-59
2023/01/25 11:03:48;;;;;;;0.57;0.52;;;;;;;24.29;54.81;101350.94;7390746;19;20006;-60
2023/01/25 11:06:37;;;;;;;1.58;0.85;;;;;;;23.60;56.27;101359.09;7393743;19;20011;-59
2023/01/25 11:09:21;;;;;;;4.18;0.63;;;;;;;24.36;54.64;101361.72;7389697;19;20006;-59
2023/01/25 11:11:58;;;;;;;3.70;0.82;;;;;;;23.35;56.01;101349.72;7389274;19;20017;-59
2023/01/25 11:14:27;;;;;;;2.05;0.55;;;;;;;23.94;55.20;101336.78;7389226;19;20034;-59
2023/01/25 11:16:56;;;;;;;0.98;0.75;;;;;;;23.78;55.82;101347.03;7388463;19;20405;-59
2023/01/25 11:19:34;;;;;;;0.77;0.68;;;;;;;23.77;55.78;101339.81;7389534;19;20006;-59
2023/01/25 11:22:03;;;;;;;12.07;1.92;;;;;;;24.37;54.60;101345.38;7389455;19;20045;-60
2023/01/25 11:24:35;;;;;;;3.50;2.15;;;;;;;24.35;53.80;101350.84;7389575;19;20011;-60
2023/01/25 11:27:16;;;;;;;;;;;;;;;24.17;53.89;101345.91;7390398;19;20614;-59
2023/01/25 11:29:45;;;;;;;3.13;1.38;;;;;;;23.73;55.11;101350.72;7397815;19;19919;-59
2023/01/25 11:32:20;;;;;;;1.23;0.28;;;;;;;23.84;54.60;101339.22;7395890;19;20028;-59
2023/01/25 11:34:48;;;;;;;0.65;0.65;;;;;;;23.42;55.29;101337.00;7398998;19;20017;-59
2023/01/25 11:37:40;;;;;;;0.63;0.47;;;;;;;23.75;54.85;101322.50;7396277;19;20633;-59
2023/01/25 11:40:21;;;;;;;4.47;1.33;;;;;;;23.90;54.48;101322.88;7397181;19;20018;-59
2023/01/25 11:43:06;;;;;;;;;;;;;;;23.08;55.94;101310.91;7398133;19;20015;-59
2023/01/25 11:45:40;;;;;;;8.52;1.98;;;;;;;22.48;58.56;101300.66;7400332;19;19946;-59